createdAt,value
2022-12-17T00:02:00.514Z,23.00
2022-12-17T00:04:20.909Z,23.90
2022-12-17T00:06:41.215Z,23.43
2022-12-17T00:09:01.389Z,22.10
2022-12-17T00:11:21.820Z,23.03
2022-12-17T00:13:42.097Z,23.87
2022-12-17T00:16:02.322Z,24.57
2022-12-17T00:18:25.236Z,24.87
2022-12-17T00:20:45.698Z,24.10
2022-12-17T00:23:06.062Z,25.17
2022-12-17T00:25:26.573Z,26.20
2022-12-17T00:27:46.843Z,23.90
2022-12-17T00:30:07.171Z,24.60
2022-12-17T00:32:28.273Z,23.97
2022-12-17T00:34:48.413Z,23.00
2022-12-17T00:37:09.304Z,21.30
2022-12-17T00:39:29.960Z,23.50
2022-12-17T00:41:50.264Z,22.80
2022-12-17T00:44:10.684Z,24.83
2022-12-17T00:46:30.842Z,24.60
2022-12-17T00:48:51.093Z,23.00
2022-12-17T00:51:14.018Z,24.40
2022-12-17T00:53:34.826Z,24.90
2022-12-17T00:55:55.233Z,24.77
2022-12-17T00:58:17.277Z,24.37
2022-12-17T01:00:37.487Z,24.00
2022-12-17T01:02:58.371Z,23.87
2022-12-17T01:05:18.673Z,24.07
2022-12-17T01:07:38.906Z,24.23
2022-12-17T01:09:59.052Z,26.63
2022-12-17T01:12:19.604Z,29.20
2022-12-17T01:14:40.101Z,27.80
2022-12-17T01:17:00.360Z,30.47
2022-12-17T01:19:20.648Z,26.70
2022-12-17T01:21:41.101Z,29.80
2022-12-17T01:24:01.563Z,29.93
2022-12-17T01:26:22.746Z,29.23
2022-12-17T01:28:43.584Z,28.40
2022-12-17T01:31:04.143Z,28.50
2022-12-17T01:33:26.289Z,28.47
2022-12-17T01:35:47.069Z,28.97
2022-12-17T01:38:07.439Z,27.77
2022-12-17T01:40:29.177Z,29.77
2022-12-17T01:43:05.288Z,29.50
2022-12-17T01:45:32.260Z,31.80
2022-12-17T01:47:56.985Z,29.50
2022-12-17T01:50:17.352Z,31.33
2022-12-17T01:52:37.968Z,29.67
2022-12-17T01:54:58.769Z,30.37
2022-12-17T01:57:21.072Z,31.00
2022-12-17T01:59:51.298Z,30.70
2022-12-17T02:02:11.796Z,29.63
2022-12-17T02:04:32.476Z,28.70
2022-12-17T02:06:59.976Z,29.10
2022-12-17T02:09:35.424Z,27.43
2022-12-17T02:12:04.774Z,23.90
2022-12-17T02:14:59.666Z,24.70
2022-12-17T02:17:24.870Z,24.37
2022-12-17T02:20:07.325Z,22.20
2022-12-17T02:22:59.665Z,20.50
2022-12-17T02:25:33.829Z,22.20
2022-12-17T02:27:54.355Z,20.73
2022-12-17T02:30:19.396Z,19.87
2022-12-17T02:32:41.673Z,18.53
2022-12-17T02:35:06.114Z,19.40
2022-12-17T02:37:26.336Z,20.77
2022-12-17T02:39:46.685Z,21.60
2022-12-17T02:42:11.596Z,21.67
2022-12-17T02:44:35.856Z,21.10
2022-12-17T02:47:15.355Z,20.40
2022-12-17T02:49:35.628Z,21.53
2022-12-17T02:51:56.446Z,21.00
2022-12-17T02:54:21.577Z,19.97
2022-12-17T02:56:41.801Z,23.77
2022-12-17T02:59:02.137Z,23.50
2022-12-17T03:01:23.339Z,20.23
2022-12-17T03:03:48.668Z,22.80
2022-12-17T03:06:10.549Z,21.40
2022-12-17T03:08:31.276Z,20.73
2022-12-17T03:10:51.430Z,21.60
2022-12-17T03:13:11.877Z,22.40
2022-12-17T03:15:32.286Z,19.90
2022-12-17T03:17:52.707Z,23.13
2022-12-17T03:20:13.083Z,23.27
2022-12-17T03:22:33.326Z,25.13
2022-12-17T03:24:53.587Z,23.77
2022-12-17T03:27:13.789Z,18.43
2022-12-17T03:29:34.097Z,21.43
2022-12-17T03:31:54.376Z,19.77
2022-12-17T03:34:14.689Z,18.60
2022-12-17T03:36:42.499Z,20.30
2022-12-17T03:39:02.958Z,25.27
2022-12-17T03:41:23.303Z,23.07
2022-12-17T03:43:43.486Z,27.43
2022-12-17T03:46:10.976Z,49.50
2022-12-17T03:48:33.750Z,51.87
2022-12-17T03:50:54.064Z,50.73
2022-12-17T03:53:14.412Z,36.50
2022-12-17T03:55:34.769Z,31.00
2022-12-17T03:57:55.383Z,36.60
2022-12-17T04:00:15.697Z,30.97
2022-12-17T04:02:36.316Z,34.87
2022-12-17T04:04:57.017Z,26.77
2022-12-17T04:07:17.358Z,42.60
2022-12-17T04:09:37.741Z,45.17
2022-12-17T04:11:58.094Z,47.07
2022-12-17T04:14:18.479Z,39.17
2022-12-17T04:16:38.754Z,47.17
2022-12-17T04:18:59.042Z,42.80
2022-12-17T04:21:20.854Z,49.23
2022-12-17T04:23:41.289Z,53.30
2022-12-17T04:26:01.628Z,34.93
2022-12-17T04:28:21.688Z,35.57
2022-12-17T04:30:42.348Z,32.67
2022-12-17T04:33:02.780Z,27.30
2022-12-17T04:35:23.682Z,34.53
2022-12-17T04:37:44.246Z,38.03
2022-12-17T04:40:04.612Z,26.20
2022-12-17T04:42:24.933Z,40.47
2022-12-17T04:44:45.198Z,34.37
2022-12-17T04:47:05.373Z,36.97
2022-12-17T04:49:25.546Z,45.50
2022-12-17T04:51:46.443Z,64.73
2022-12-17T04:54:06.614Z,66.80
2022-12-17T04:56:26.745Z,44.80
2022-12-17T04:58:47.220Z,43.47
2022-12-17T05:01:10.577Z,63.20
2022-12-17T05:03:33.288Z,41.70
2022-12-17T05:05:53.873Z,33.97
2022-12-17T05:08:15.532Z,41.67
2022-12-17T05:10:35.914Z,36.00
2022-12-17T05:12:56.237Z,32.37
2022-12-17T05:15:16.644Z,51.83
2022-12-17T05:17:36.812Z,48.83
2022-12-17T05:19:57.382Z,29.10
2022-12-17T05:22:17.627Z,37.37
2022-12-17T05:24:37.881Z,31.43
2022-12-17T05:26:58.265Z,29.10
2022-12-17T05:29:18.417Z,50.33
2022-12-17T05:31:38.662Z,35.60
2022-12-17T05:34:01.151Z,37.43
2022-12-17T05:36:22.234Z,46.43
2022-12-17T05:38:42.816Z,50.37
2022-12-17T05:41:03.098Z,57.60
2022-12-17T05:43:25.581Z,65.37
2022-12-17T05:45:45.769Z,65.13
2022-12-17T05:48:05.973Z,32.77
2022-12-17T05:50:26.911Z,25.27
2022-12-17T05:52:47.201Z,28.37
2022-12-17T05:55:07.398Z,46.17
2022-12-17T05:57:27.826Z,30.27
2022-12-17T05:59:47.909Z,25.80
2022-12-17T06:02:08.228Z,31.27
2022-12-17T06:04:29.048Z,43.30
2022-12-17T06:06:49.496Z,25.30
2022-12-17T06:09:09.836Z,26.03
2022-12-17T06:11:30.132Z,30.87
2022-12-17T06:13:50.672Z,22.40
2022-12-17T06:16:10.965Z,27.50
2022-12-17T06:18:31.441Z,33.90
2022-12-17T06:20:51.890Z,52.07
2022-12-17T06:23:24.550Z,51.83
2022-12-17T06:25:44.750Z,40.33
2022-12-17T06:28:04.840Z,32.57
2022-12-17T06:30:25.184Z,37.70
2022-12-17T06:32:45.300Z,44.90
2022-12-17T06:35:05.301Z,29.93
2022-12-17T06:37:25.401Z,24.87
2022-12-17T06:39:45.964Z,30.50
2022-12-17T06:42:06.144Z,39.70
2022-12-17T06:44:26.242Z,34.60
2022-12-17T06:46:46.667Z,31.43
2022-12-17T06:49:07.008Z,29.47
2022-12-17T06:51:27.363Z,26.63
2022-12-17T06:53:47.664Z,34.17
2022-12-17T06:56:08.024Z,31.53
2022-12-17T06:58:28.379Z,56.10
2022-12-17T07:00:48.490Z,38.13
2022-12-17T07:03:14.826Z,22.53
2022-12-17T07:05:35.712Z,22.63
2022-12-17T07:07:55.902Z,21.40
2022-12-17T07:10:17.373Z,21.57
2022-12-17T07:12:37.988Z,36.33
2022-12-17T07:14:58.219Z,21.50
2022-12-17T07:17:18.494Z,29.63
2022-12-17T07:19:38.929Z,48.27
2022-12-17T07:21:59.055Z,22.80
2022-12-17T07:24:19.454Z,26.70
2022-12-17T07:26:39.918Z,31.20
2022-12-17T07:29:00.157Z,24.20
2022-12-17T07:31:20.935Z,24.60
2022-12-17T07:33:41.374Z,33.10
2022-12-17T07:36:01.444Z,33.57
2022-12-17T07:38:23.365Z,25.53
2022-12-17T07:40:43.507Z,35.43
2022-12-17T07:43:04.175Z,30.93
2022-12-17T07:45:25.135Z,21.80
2022-12-17T07:47:59.093Z,22.73
2022-12-17T07:50:19.499Z,25.73
2022-12-17T07:52:39.972Z,35.50
2022-12-17T07:55:00.128Z,25.63
2022-12-17T07:57:20.213Z,29.43
2022-12-17T07:59:40.478Z,25.87
2022-12-17T08:02:00.949Z,23.33
2022-12-17T08:04:21.705Z,33.10
2022-12-17T08:06:42.068Z,30.53
2022-12-17T08:09:02.964Z,24.00
2022-12-17T08:11:23.038Z,28.30
2022-12-17T08:13:43.545Z,32.03
2022-12-17T08:16:04.712Z,29.87
2022-12-17T08:18:26.867Z,28.37
2022-12-17T08:20:47.365Z,27.73
2022-12-17T08:23:07.646Z,37.07
2022-12-17T08:25:27.789Z,23.13
2022-12-17T08:27:48.212Z,30.53
2022-12-17T08:30:08.598Z,28.30
2022-12-17T08:32:29.096Z,43.77
2022-12-17T08:34:49.317Z,26.60
2022-12-17T08:37:09.783Z,28.33
2022-12-17T08:39:29.857Z,29.70
2022-12-17T08:41:54.460Z,22.60
2022-12-17T08:44:16.033Z,22.53
2022-12-17T08:46:36.651Z,22.70
2022-12-17T08:48:57.352Z,24.30
2022-12-17T08:51:17.600Z,23.43
2022-12-17T08:53:38.132Z,22.80
2022-12-17T08:55:58.316Z,21.73
2022-12-17T08:58:18.720Z,24.37
2022-12-17T09:00:39.008Z,22.80
2022-12-17T09:03:01.039Z,23.63
2022-12-17T09:05:21.698Z,25.37
2022-12-17T09:07:41.664Z,22.33
2022-12-17T09:10:02.069Z,21.60
2022-12-17T09:12:22.394Z,23.60
2022-12-17T09:14:42.802Z,24.97
2022-12-17T09:17:04.028Z,54.17
2022-12-17T09:19:24.622Z,26.90
2022-12-17T09:21:50.163Z,24.37
2022-12-17T09:24:10.674Z,23.93
2022-12-17T09:26:30.720Z,22.33
2022-12-17T09:29:07.576Z,23.57
2022-12-17T09:31:30.057Z,26.40
2022-12-17T09:33:55.034Z,22.27
2022-12-17T09:36:15.324Z,25.37
2022-12-17T09:38:36.361Z,41.07
2022-12-17T09:40:58.099Z,26.83
2022-12-17T09:43:25.456Z,28.70
2022-12-17T09:46:07.462Z,56.37
2022-12-17T09:49:00.815Z,26.20
2022-12-17T09:51:21.519Z,26.60
2022-12-17T09:53:54.174Z,23.80
2022-12-17T09:56:16.516Z,29.37
2022-12-17T09:58:44.667Z,24.20
2022-12-17T10:01:04.973Z,21.93
2022-12-17T10:03:31.624Z,28.83
2022-12-17T10:05:53.000Z,23.40
2022-12-17T10:08:13.870Z,21.57
2022-12-17T10:10:39.233Z,20.07
2022-12-17T10:12:59.341Z,19.97
2022-12-17T10:15:20.491Z,26.90
2022-12-17T10:17:43.892Z,22.43
2022-12-17T10:20:08.108Z,26.07
2022-12-17T10:22:31.557Z,32.40
2022-12-17T10:25:02.549Z,24.27
2022-12-17T10:27:30.111Z,23.73
2022-12-17T10:29:50.397Z,24.07
2022-12-17T10:32:19.544Z,27.03
2022-12-17T10:34:39.728Z,25.23
2022-12-17T10:37:09.100Z,20.60
2022-12-17T10:39:36.476Z,22.37
2022-12-17T10:42:01.326Z,17.90
2022-12-17T10:44:21.903Z,19.30
2022-12-17T10:46:47.085Z,21.83
2022-12-17T10:49:11.336Z,22.97
2022-12-17T10:51:49.393Z,29.63
2022-12-17T10:54:11.010Z,37.37
2022-12-17T10:56:43.307Z,22.37
2022-12-17T10:59:06.611Z,30.33
2022-12-17T11:01:31.601Z,22.73
2022-12-17T11:03:54.664Z,20.00
2022-12-17T11:06:15.249Z,23.37
2022-12-17T11:08:36.204Z,20.90
2022-12-17T11:11:00.918Z,19.47
2022-12-17T11:13:26.985Z,22.07
2022-12-17T11:15:51.905Z,20.03
2022-12-17T11:18:12.743Z,19.73
2022-12-17T11:20:47.715Z,19.60
2022-12-17T11:23:12.974Z,18.10
2022-12-17T11:25:58.120Z,20.37
2022-12-17T11:28:34.441Z,20.00
2022-12-17T11:31:06.569Z,17.87
2022-12-17T11:33:36.071Z,19.90
2022-12-17T11:36:23.172Z,20.03
2022-12-17T11:39:26.391Z,18.80
2022-12-17T11:42:06.609Z,23.60
2022-12-17T11:44:45.582Z,21.67
2022-12-17T11:47:12.550Z,21.17
2022-12-17T11:50:06.925Z,18.77
2022-12-17T11:52:55.956Z,21.33
2022-12-17T11:55:40.344Z,20.43
2022-12-17T11:58:10.227Z,19.43
2022-12-17T12:00:39.484Z,20.40
2022-12-17T12:02:59.855Z,21.03
2022-12-17T12:05:37.905Z,22.47
2022-12-17T12:08:21.443Z,22.20
2022-12-17T12:10:48.383Z,21.00
2022-12-17T12:13:33.150Z,19.87
2022-12-17T12:16:06.907Z,20.30
2022-12-17T12:18:45.464Z,19.37
2022-12-17T12:21:39.219Z,19.40
2022-12-17T12:24:44.460Z,19.63
2022-12-17T12:27:23.559Z,18.70
2022-12-17T12:29:55.765Z,19.50
2022-12-17T12:32:31.342Z,19.97
2022-12-17T12:34:56.355Z,19.77
2022-12-17T12:37:20.749Z,20.60
2022-12-17T12:39:51.069Z,19.50
2022-12-17T12:42:24.196Z,20.70
2022-12-17T12:44:55.380Z,21.60
2022-12-17T12:47:21.228Z,19.50
2022-12-17T12:49:49.853Z,19.90
2022-12-17T12:52:13.341Z,19.43
2022-12-17T12:54:39.645Z,19.90
2022-12-17T12:57:00.183Z,20.23
2022-12-17T12:59:49.498Z,18.77
2022-12-17T13:02:12.915Z,20.97
2022-12-17T13:05:01.406Z,18.80
2022-12-17T13:07:04.404Z,18.77
2022-12-17T13:09:32.253Z,20.50
2022-12-17T13:11:40.284Z,20.00
2022-12-17T13:13:56.141Z,19.20
2022-12-17T13:16:20.367Z,19.50
2022-12-17T13:18:41.454Z,19.07
2022-12-17T13:20:43.489Z,19.77
2022-12-17T13:23:16.856Z,18.10
2022-12-17T13:25:24.028Z,18.17
2022-12-17T13:27:52.092Z,16.70
2022-12-17T13:29:53.910Z,19.83
2022-12-17T13:32:22.287Z,16.90
2022-12-17T13:35:07.041Z,18.00
2022-12-17T13:37:53.083Z,17.40
2022-12-17T13:40:00.795Z,18.90
2022-12-17T13:42:03.319Z,18.33
2022-12-17T13:44:17.422Z,18.30
2022-12-17T13:46:23.923Z,18.10
2022-12-17T13:48:28.084Z,17.50
2022-12-17T13:50:34.277Z,18.40
2022-12-17T13:52:37.130Z,19.73
2022-12-17T13:54:39.058Z,17.93
2022-12-17T13:56:40.914Z,19.10
2022-12-17T13:58:43.159Z,21.30
2022-12-17T14:00:44.943Z,21.60
2022-12-17T14:02:47.058Z,20.80
2022-12-17T14:04:53.643Z,18.77
2022-12-17T14:07:06.166Z,19.33
2022-12-17T14:09:14.168Z,19.73
2022-12-17T14:11:34.588Z,21.67
2022-12-17T14:13:37.213Z,20.40
2022-12-17T14:15:44.360Z,20.80
2022-12-17T14:17:48.853Z,19.97
2022-12-17T14:20:05.471Z,20.77
2022-12-17T14:22:08.935Z,20.30
2022-12-17T14:24:13.868Z,19.23
2022-12-17T14:26:15.947Z,22.30
2022-12-17T14:28:20.663Z,22.37
2022-12-17T14:30:46.341Z,21.47
2022-12-17T14:32:58.895Z,20.77
2022-12-17T14:35:01.209Z,20.70
2022-12-17T14:37:03.169Z,23.83
2022-12-17T14:39:16.463Z,23.57
2022-12-17T14:41:37.191Z,23.47
2022-12-17T14:43:39.068Z,22.80
2022-12-17T14:46:09.912Z,22.63
2022-12-17T14:48:16.079Z,21.63
2022-12-17T14:50:18.169Z,22.50
2022-12-17T14:52:33.124Z,22.50
2022-12-17T14:54:34.963Z,21.87
2022-12-17T14:56:36.902Z,20.90
2022-12-17T14:58:45.638Z,22.80
2022-12-17T15:00:55.819Z,23.43
2022-12-17T15:02:57.801Z,23.20
2022-12-17T15:05:02.690Z,21.93
2022-12-17T15:07:06.813Z,23.43
2022-12-17T15:09:12.495Z,23.60
2022-12-17T15:11:17.357Z,25.13
2022-12-17T15:13:19.133Z,22.90
2022-12-17T15:15:21.916Z,23.83
2022-12-17T15:17:23.767Z,27.53
2022-12-17T15:19:25.503Z,27.97
2022-12-17T15:21:27.911Z,25.47
2022-12-17T15:23:30.549Z,27.17
2022-12-17T15:25:32.308Z,26.90
2022-12-17T15:27:33.987Z,26.43
2022-12-17T15:29:35.766Z,26.70
2022-12-17T15:31:37.533Z,28.20
2022-12-17T15:33:40.258Z,27.97
2022-12-17T15:35:42.896Z,27.63
2022-12-17T15:37:44.633Z,25.63
2022-12-17T15:39:46.444Z,27.80
2022-12-17T15:42:07.070Z,30.17
2022-12-17T15:44:08.824Z,39.90
2022-12-17T15:46:10.572Z,34.50
2022-12-17T15:48:14.282Z,29.37
2022-12-17T15:50:16.081Z,30.20
2022-12-17T15:52:17.728Z,29.80
2022-12-17T15:54:19.449Z,29.33
2022-12-17T15:56:26.607Z,31.10
2022-12-17T15:58:28.906Z,27.87
2022-12-17T16:00:30.558Z,29.27
2022-12-17T16:02:32.602Z,34.40
2022-12-17T16:04:34.603Z,36.47
2022-12-17T16:06:36.340Z,35.63
2022-12-17T16:08:39.426Z,38.00
2022-12-17T16:10:41.615Z,36.50
2022-12-17T16:12:43.764Z,35.97
2022-12-17T16:14:45.562Z,34.73
2022-12-17T16:16:47.380Z,32.50
2022-12-17T16:18:49.110Z,33.50
2022-12-17T16:20:51.127Z,35.50
2022-12-17T16:22:52.892Z,35.87
2022-12-17T16:24:54.615Z,32.80
2022-12-17T16:27:02.432Z,33.77
2022-12-17T16:29:06.615Z,29.97
2022-12-17T16:31:11.299Z,33.53
2022-12-17T16:33:13.166Z,32.30
2022-12-17T16:35:14.949Z,34.67
2022-12-17T16:37:16.895Z,35.40
2022-12-17T16:39:19.707Z,35.63
2022-12-17T16:41:22.579Z,35.23
2022-12-17T16:43:25.145Z,36.30
2022-12-17T16:45:26.873Z,35.20
2022-12-17T16:47:28.643Z,35.37
2022-12-17T16:49:30.715Z,36.00
2022-12-17T16:51:32.720Z,32.80
2022-12-17T16:53:34.666Z,32.77
2022-12-17T16:55:47.109Z,32.90
2022-12-17T16:57:48.838Z,32.77
2022-12-17T16:59:50.693Z,33.90
2022-12-17T17:01:52.872Z,30.60
2022-12-17T17:03:56.122Z,32.33
2022-12-17T17:06:01.323Z,31.03
2022-12-17T17:08:03.513Z,31.20
2022-12-17T17:10:05.980Z,32.50
2022-12-17T17:12:08.881Z,29.97
2022-12-17T17:14:11.114Z,31.00
2022-12-17T17:16:12.985Z,29.23
2022-12-17T17:18:14.815Z,30.63
2022-12-17T17:20:16.620Z,30.70
2022-12-17T17:22:18.568Z,32.20
2022-12-17T17:24:22.927Z,27.20
2022-12-17T17:26:25.564Z,30.30
2022-12-17T17:28:27.360Z,31.13
2022-12-17T17:30:29.067Z,32.87
2022-12-17T17:32:30.875Z,32.20
2022-12-17T17:34:32.840Z,30.57
2022-12-17T17:36:34.816Z,32.60
2022-12-17T17:38:38.769Z,33.10
2022-12-17T17:40:40.712Z,29.23
2022-12-17T17:42:44.203Z,30.17
2022-12-17T17:44:49.013Z,29.67
2022-12-17T17:46:51.023Z,30.93
2022-12-17T17:48:57.013Z,29.90
2022-12-17T17:51:04.618Z,29.13
2022-12-17T17:53:06.460Z,30.90
2022-12-17T17:55:08.359Z,30.50
2022-12-17T17:57:10.403Z,27.60
2022-12-17T17:59:14.631Z,25.43
2022-12-17T18:01:31.975Z,27.23
2022-12-17T18:03:33.836Z,24.80
2022-12-17T18:05:41.637Z,28.43
2022-12-17T18:07:43.724Z,25.43
2022-12-17T18:09:45.692Z,26.07
2022-12-17T18:11:47.505Z,24.07
2022-12-17T18:13:55.122Z,25.60
2022-12-17T18:16:01.727Z,25.57
2022-12-17T18:18:03.609Z,27.60
2022-12-17T18:20:05.979Z,29.93
2022-12-17T18:22:07.795Z,26.93
2022-12-17T18:24:24.001Z,25.73
2022-12-17T18:26:27.433Z,26.27
2022-12-17T18:28:29.673Z,31.67
2022-12-17T18:30:31.523Z,31.57
2022-12-17T18:32:33.275Z,27.07
2022-12-17T18:34:35.706Z,26.40
2022-12-17T18:36:39.903Z,23.77
2022-12-17T18:38:42.498Z,21.90
2022-12-17T18:40:44.148Z,23.37
2022-12-17T18:43:04.480Z,23.00
2022-12-17T18:45:06.856Z,20.67
2022-12-17T18:47:10.466Z,20.47
2022-12-17T18:49:14.603Z,23.50
2022-12-17T18:51:16.567Z,18.10
2022-12-17T18:53:18.583Z,21.33
2022-12-17T18:55:20.327Z,21.30
2022-12-17T18:57:22.128Z,21.73
2022-12-17T18:59:29.012Z,22.00
2022-12-17T19:01:34.228Z,21.93
2022-12-17T19:03:36.304Z,20.60
2022-12-17T19:05:45.176Z,21.57
2022-12-17T19:07:48.368Z,22.87
2022-12-17T19:09:50.156Z,21.27
2022-12-17T19:11:53.288Z,23.23
2022-12-17T19:13:55.020Z,20.60
2022-12-17T19:15:56.909Z,23.53
2022-12-17T19:17:58.858Z,20.83
2022-12-17T19:20:00.578Z,20.90
2022-12-17T19:22:03.359Z,20.37
2022-12-17T19:24:08.386Z,19.37
2022-12-17T19:26:13.728Z,21.30
2022-12-17T19:28:17.055Z,20.23
2022-12-17T19:30:18.853Z,20.13
2022-12-17T19:32:20.669Z,20.90
2022-12-17T19:34:22.533Z,20.73
2022-12-17T19:36:28.515Z,19.20
2022-12-17T19:38:30.656Z,20.97
2022-12-17T19:40:35.141Z,22.00
2022-12-17T19:42:37.774Z,20.60
2022-12-17T19:44:39.755Z,21.53
2022-12-17T19:46:42.252Z,21.03
2022-12-17T19:48:48.733Z,21.00
2022-12-17T19:50:57.421Z,19.40
2022-12-17T19:52:59.200Z,22.00
2022-12-17T19:55:02.218Z,18.40
2022-12-17T19:57:04.017Z,19.50
2022-12-17T19:59:07.985Z,19.00
2022-12-17T20:01:13.599Z,16.80
2022-12-17T20:03:15.875Z,18.60
2022-12-17T20:05:17.840Z,18.93
2022-12-17T20:07:19.646Z,19.43
2022-12-17T20:09:21.465Z,19.07
2022-12-17T20:11:35.914Z,16.27
2022-12-17T20:13:37.889Z,17.93
2022-12-17T20:15:39.722Z,19.00
2022-12-17T20:17:41.571Z,18.67
2022-12-17T20:19:43.803Z,18.43
2022-12-17T20:21:46.124Z,18.13
2022-12-17T20:23:50.357Z,19.20
2022-12-17T20:26:02.152Z,19.03
2022-12-17T20:28:04.129Z,18.00
2022-12-17T20:30:06.988Z,19.30
2022-12-17T20:32:08.717Z,19.17
2022-12-17T20:34:13.910Z,19.23
2022-12-17T20:36:18.384Z,17.67
2022-12-17T20:38:20.700Z,19.07
2022-12-17T20:40:22.378Z,16.40
2022-12-17T20:42:24.349Z,16.70
2022-12-17T20:44:26.349Z,14.73
2022-12-17T20:46:28.089Z,15.80
2022-12-17T20:48:29.950Z,16.93
2022-12-17T20:50:32.006Z,17.87
2022-12-17T20:52:33.854Z,15.93
2022-12-17T20:54:35.496Z,17.23
2022-12-17T20:56:38.308Z,16.13
2022-12-17T20:58:41.580Z,15.63
2022-12-17T21:00:43.791Z,14.47
2022-12-17T21:02:45.920Z,16.23
2022-12-17T21:04:48.379Z,16.53
2022-12-17T21:06:50.259Z,15.00
2022-12-17T21:08:53.378Z,15.57
2022-12-17T21:10:58.314Z,17.10
2022-12-17T21:13:18.537Z,17.27
2022-12-17T21:15:21.639Z,17.00
2022-12-17T21:17:23.428Z,16.43
2022-12-17T21:19:25.373Z,14.20
2022-12-17T21:21:30.547Z,16.90
2022-12-17T21:23:33.224Z,18.20
2022-12-17T21:25:35.024Z,21.90
2022-12-17T21:27:36.799Z,19.00
2022-12-17T21:29:38.583Z,15.00
2022-12-17T21:31:43.801Z,19.07
2022-12-17T21:33:49.831Z,18.83
2022-12-17T21:36:01.654Z,16.83
2022-12-17T21:38:09.458Z,18.53
2022-12-17T21:40:13.449Z,18.80
2022-12-17T21:42:33.669Z,18.80
2022-12-17T21:44:36.038Z,16.63
2022-12-17T21:46:37.830Z,19.30
2022-12-17T21:48:42.360Z,18.50
2022-12-17T21:50:45.379Z,19.40
2022-12-17T21:52:47.811Z,17.23
2022-12-17T21:54:49.472Z,19.60
2022-12-17T21:56:51.192Z,18.23
2022-12-17T21:59:00.317Z,19.27
2022-12-17T22:01:19.948Z,19.40
2022-12-17T22:03:21.882Z,20.00
2022-12-17T22:05:23.881Z,19.80
2022-12-17T22:07:27.733Z,19.70
2022-12-17T22:10:01.283Z,19.50
2022-12-17T22:12:20.168Z,19.03
2022-12-17T22:14:22.394Z,20.70
2022-12-17T22:16:24.939Z,22.40
2022-12-17T22:18:26.626Z,21.10
2022-12-17T22:20:28.493Z,19.93
2022-12-17T22:22:30.270Z,19.80
2022-12-17T22:24:35.905Z,21.80
2022-12-17T22:26:38.381Z,21.13
2022-12-17T22:28:40.506Z,21.33
2022-12-17T22:31:01.151Z,21.73
2022-12-17T22:33:06.883Z,22.77
2022-12-17T22:37:31.722Z,21.70
2022-12-17T22:41:17.877Z,21.20
2022-12-17T22:44:15.023Z,23.93
2022-12-17T22:44:48.775Z,20.90
2022-12-17T22:45:12.021Z,21.97
2022-12-17T22:47:14.521Z,22.53
2022-12-17T22:49:16.620Z,19.13
2022-12-17T22:51:26.972Z,21.70
2022-12-17T22:53:41.155Z,22.87
2022-12-17T22:55:43.390Z,21.63
2022-12-17T22:57:45.485Z,21.77
2022-12-17T22:59:47.359Z,21.27
2022-12-17T23:01:49.088Z,22.83
2022-12-17T23:03:58.128Z,20.87
2022-12-17T23:06:10.474Z,22.63
2022-12-17T23:08:12.283Z,21.80
2022-12-17T23:10:14.088Z,23.70
2022-12-17T23:12:34.716Z,21.10
2022-12-17T23:14:36.756Z,22.90
2022-12-17T23:16:39.632Z,21.20
2022-12-17T23:18:43.112Z,20.27
2022-12-17T23:20:44.802Z,21.40
2022-12-17T23:22:46.848Z,20.67
2022-12-17T23:24:48.492Z,22.40
2022-12-17T23:26:50.217Z,20.77
2022-12-17T23:28:59.415Z,19.23
2022-12-17T23:31:16.578Z,21.07
2022-12-17T23:33:18.292Z,21.17
2022-12-17T23:35:20.192Z,21.43
2022-12-17T23:37:21.868Z,18.87
2022-12-17T23:39:23.627Z,20.93
2022-12-17T23:41:28.983Z,21.27
2022-12-17T23:43:31.042Z,17.67
2022-12-17T23:45:32.814Z,18.23
2022-12-17T23:47:34.768Z,19.40
2022-12-17T23:49:36.702Z,19.30
2022-12-17T23:51:38.729Z,19.40
2022-12-17T23:53:40.819Z,20.93
2022-12-17T23:55:42.996Z,16.00
2022-12-17T23:57:44.837Z,19.70
2022-12-17T23:59:46.725Z,19.70
